sensor_id;sensor_type;location;lat;lon;timestamp;P1;durP1;ratioP1;P2;durP2;ratioP2
72797;SDS011;61084;55.816;37.036;2023-05-13T00:00:49;11.80;;;4.30;;
72797;SDS011;61084;55.816;37.036;2023-05-13T00:03:14;6.93;;;3.65;;
72797;SDS011;61084;55.816;37.036;2023-05-13T00:05:41;9.75;;;3.50;;
72797;SDS011;61084;55.816;37.036;2023-05-13T00:08:07;7.93;;;3.35;;
72797;SDS011;61084;55.816;37.036;2023-05-13T00:10:33;6.85;;;3.72;;
72797;SDS011;61084;55.816;37.036;2023-05-13T00:12:59;6.07;;;3.53;;
72797;SDS011;61084;55.816;37.036;2023-05-13T00:15:26;7.65;;;4.07;;
72797;SDS011;61084;55.816;37.036;2023-05-13T00:20:18;5.55;;;3.70;;
72797;SDS011;61084;55.816;37.036;2023-05-13T00:22:44;11.23;;;4.20;;
72797;SDS011;61084;55.816;37.036;2023-05-13T00:25:10;11.05;;;4.45;;
72797;SDS011;61084;55.816;37.036;2023-05-13T00:27:36;8.45;;;4.38;;
72797;SDS011;61084;55.816;37.036;2023-05-13T00:30:02;12.38;;;4.40;;
72797;SDS011;61084;55.816;37.036;2023-05-13T00:32:31;8.60;;;4.70;;
72797;SDS011;61084;55.816;37.036;2023-05-13T00:34:56;8.50;;;4.28;;
72797;SDS011;61084;55.816;37.036;2023-05-13T00:37:23;15.25;;;4.68;;
72797;SDS011;61084;55.816;37.036;2023-05-13T00:39:49;7.88;;;4.45;;
72797;SDS011;61084;55.816;37.036;2023-05-13T00:42:16;7.25;;;4.35;;
72797;SDS011;61084;55.816;37.036;2023-05-13T00:44:42;10.45;;;4.40;;
72797;SDS011;61084;55.816;37.036;2023-05-13T00:47:09;9.98;;;4.50;;
72797;SDS011;61084;55.816;37.036;2023-05-13T00:49:38;8.75;;;4.38;;
72797;SDS011;61084;55.816;37.036;2023-05-13T00:52:04;6.63;;;4.20;;
72797;SDS011;61084;55.816;37.036;2023-05-13T00:54:31;6.88;;;4.28;;
72797;SDS011;61084;55.816;37.036;2023-05-13T00:56:58;8.82;;;4.50;;
72797;SDS011;61084;55.816;37.036;2023-05-13T00:59:25;9.25;;;4.68;;
72797;SDS011;61084;55.816;37.036;2023-05-13T01:02:03;11.82;;;4.68;;
72797;SDS011;61084;55.816;37.036;2023-05-13T01:04:41;5.30;;;3.67;;
72797;SDS011;61084;55.816;37.036;2023-05-13T01:09:39;6.32;;;3.85;;
72797;SDS011;61084;55.816;37.036;2023-05-13T01:12:21;9.18;;;4.40;;
72797;SDS011;61084;55.816;37.036;2023-05-13T01:14:58;9.90;;;3.97;;
72797;SDS011;61084;55.816;37.036;2023-05-13T01:17:56;5.22;;;3.72;;
72797;SDS011;61084;55.816;37.036;2023-05-13T01:20:22;9.45;;;3.72;;
72797;SDS011;61084;55.816;37.036;2023-05-13T01:22:49;5.90;;;3.33;;
72797;SDS011;61084;55.816;37.036;2023-05-13T01:25:15;5.72;;;3.60;;
72797;SDS011;61084;55.816;37.036;2023-05-13T01:27:42;8.90;;;3.72;;
72797;SDS011;61084;55.816;37.036;2023-05-13T01:30:09;6.88;;;3.45;;
72797;SDS011;61084;55.816;37.036;2023-05-13T01:32:36;6.57;;;3.15;;
72797;SDS011;61084;55.816;37.036;2023-05-13T01:35:03;7.07;;;3.78;;
72797;SDS011;61084;55.816;37.036;2023-05-13T01:37:32;6.70;;;3.20;;
72797;SDS011;61084;55.816;37.036;2023-05-13T01:40:00;9.15;;;3.17;;
72797;SDS011;61084;55.816;37.036;2023-05-13T01:42:29;8.70;;;3.95;;
72797;SDS011;61084;55.816;37.036;2023-05-13T01:44:55;7.35;;;3.20;;
72797;SDS011;61084;55.816;37.036;2023-05-13T01:47:22;6.13;;;3.55;;
72797;SDS011;61084;55.816;37.036;2023-05-13T01:49:48;7.97;;;3.20;;
72797;SDS011;61084;55.816;37.036;2023-05-13T01:52:14;7.07;;;3.58;;
72797;SDS011;61084;55.816;37.036;2023-05-13T01:54:40;4.60;;;3.40;;
72797;SDS011;61084;55.816;37.036;2023-05-13T01:57:10;4.93;;;3.40;;
72797;SDS011;61084;55.816;37.036;2023-05-13T01:59:37;9.98;;;3.38;;
72797;SDS011;61084;55.816;37.036;2023-05-13T02:02:02;5.88;;;3.45;;
72797;SDS011;61084;55.816;37.036;2023-05-13T02:04:30;7.90;;;3.70;;
72797;SDS011;61084;55.816;37.036;2023-05-13T02:09:23;7.05;;;3.17;;
72797;SDS011;61084;55.816;37.036;2023-05-13T02:11:49;7.50;;;3.20;;
72797;SDS011;61084;55.816;37.036;2023-05-13T02:14:15;5.65;;;2.92;;
72797;SDS011;61084;55.816;37.036;2023-05-13T02:16:41;6.22;;;3.45;;
72797;SDS011;61084;55.816;37.036;2023-05-13T02:19:07;6.50;;;3.55;;
72797;SDS011;61084;55.816;37.036;2023-05-13T02:21:33;8.60;;;3.47;;
72797;SDS011;61084;55.816;37.036;2023-05-13T02:23:59;6.38;;;3.55;;
72797;SDS011;61084;55.816;37.036;2023-05-13T02:26:27;5.65;;;3.20;;
72797;SDS011;61084;55.816;37.036;2023-05-13T02:28:54;7.10;;;3.42;;
72797;SDS011;61084;55.816;37.036;2023-05-13T02:31:20;7.85;;;3.60;;
72797;SDS011;61084;55.816;37.036;2023-05-13T02:33:46;6.68;;;3.35;;
72797;SDS011;61084;55.816;37.036;2023-05-13T02:36:12;8.52;;;3.10;;
72797;SDS011;61084;55.816;37.036;2023-05-13T02:38:38;4.53;;;2.83;;
72797;SDS011;61084;55.816;37.036;2023-05-13T02:41:06;5.22;;;3.33;;
72797;SDS011;61084;55.816;37.036;2023-05-13T02:43:31;4.57;;;2.72;;
72797;SDS011;61084;55.816;37.036;2023-05-13T02:46:02;6.60;;;3.15;;
72797;SDS011;61084;55.816;37.036;2023-05-13T02:48:30;6.53;;;3.30;;
72797;SDS011;61084;55.816;37.036;2023-05-13T02:50:56;7.18;;;3.45;;
72797;SDS011;61084;55.816;37.036;2023-05-13T02:53:22;6.95;;;3.55;;
72797;SDS011;61084;55.816;37.036;2023-05-13T02:55:54;9.85;;;3.30;;
72797;SDS011;61084;55.816;37.036;2023-05-13T02:58:24;7.15;;;3.50;;
72797;SDS011;61084;55.816;37.036;2023-05-13T03:03:17;6.72;;;3.03;;
72797;SDS011;61084;55.816;37.036;2023-05-13T03:05:43;7.15;;;3.90;;
72797;SDS011;61084;55.816;37.036;2023-05-13T03:08:09;5.00;;;2.90;;
72797;SDS011;61084;55.816;37.036;2023-05-13T03:10:40;8.20;;;2.80;;
72797;SDS011;61084;55.816;37.036;2023-05-13T03:13:07;6.70;;;3.08;;
72797;SDS011;61084;55.816;37.036;2023-05-13T03:17:59;5.70;;;3.00;;
72797;SDS011;61084;55.816;37.036;2023-05-13T03:20:25;8.70;;;3.33;;
72797;SDS011;61084;55.816;37.036;2023-05-13T03:22:51;9.20;;;3.47;;
72797;SDS011;61084;55.816;37.036;2023-05-13T03:25:17;7.22;;;3.38;;
72797;SDS011;61084;55.816;37.036;2023-05-13T03:27:48;3.40;;;2.85;;
72797;SDS011;61084;55.816;37.036;2023-05-13T03:30:16;4.65;;;2.92;;
72797;SDS011;61084;55.816;37.036;2023-05-13T03:32:52;13.65;;;3.40;;
72797;SDS011;61084;55.816;37.036;2023-05-13T03:35:18;6.53;;;2.90;;
72797;SDS011;61084;55.816;37.036;2023-05-13T03:37:44;9.45;;;3.42;;
72797;SDS011;61084;55.816;37.036;2023-05-13T03:40:11;6.65;;;3.55;;
72797;SDS011;61084;55.816;37.036;2023-05-13T03:45:04;8.20;;;3.30;;
72797;SDS011;61084;55.816;37.036;2023-05-13T03:47:32;4.50;;;2.83;;
72797;SDS011;61084;55.816;37.036;2023-05-13T03:50:02;5.70;;;3.38;;
72797;SDS011;61084;55.816;37.036;2023-05-13T03:52:35;4.93;;;3.05;;
72797;SDS011;61084;55.816;37.036;2023-05-13T03:55:01;4.30;;;2.97;;
72797;SDS011;61084;55.816;37.036;2023-05-13T03:57:30;9.80;;;3.00;;
72797;SDS011;61084;55.816;37.036;2023-05-13T03:59:56;5.57;;;3.10;;
72797;SDS011;61084;55.816;37.036;2023-05-13T04:02:21;5.45;;;2.85;;
72797;SDS011;61084;55.816;37.036;2023-05-13T04:04:48;5.60;;;2.70;;
72797;SDS011;61084;55.816;37.036;2023-05-13T04:07:14;4.50;;;2.97;;
72797;SDS011;61084;55.816;37.036;2023-05-13T04:09:40;7.50;;;2.70;;
72797;SDS011;61084;55.816;37.036;2023-05-13T04:12:07;8.10;;;3.10;;
72797;SDS011;61084;55.816;37.036;2023-05-13T04:14:32;6.50;;;2.72;;
72797;SDS011;61084;55.816;37.036;2023-05-13T04:16:59;4.68;;;2.92;;
72797;SDS011;61084;55.816;37.036;2023-05-13T04:19:25;7.63;;;2.70;;
72797;SDS011;61084;55.816;37.036;2023-05-13T04:21:52;5.90;;;3.00;;
72797;SDS011;61084;55.816;37.036;2023-05-13T04:24:18;6.20;;;2.58;;
72797;SDS011;61084;55.816;37.036;2023-05-13T04:26:44;4.10;;;2.38;;
72797;SDS011;61084;55.816;37.036;2023-05-13T04:29:10;6.53;;;2.40;;
72797;SDS011;61084;55.816;37.036;2023-05-13T04:31:36;4.18;;;2.42;;
72797;SDS011;61084;55.816;37.036;2023-05-13T04:34:02;6.70;;;3.05;;
72797;SDS011;61084;55.816;37.036;2023-05-13T04:36:28;6.15;;;3.20;;
72797;SDS011;61084;55.816;37.036;2023-05-13T04:38:55;6.53;;;2.80;;
72797;SDS011;61084;55.816;37.036;2023-05-13T04:41:21;9.05;;;3.22;;
72797;SDS011;61084;55.816;37.036;2023-05-13T04:43:48;5.53;;;2.65;;
72797;SDS011;61084;55.816;37.036;2023-05-13T04:46:14;5.45;;;3.22;;
72797;SDS011;61084;55.816;37.036;2023-05-13T04:48:40;6.10;;;2.47;;
72797;SDS011;61084;55.816;37.036;2023-05-13T04:53:32;9.35;;;2.42;;
72797;SDS011;61084;55.816;37.036;2023-05-13T04:56:01;4.07;;;2.42;;
72797;SDS011;61084;55.816;37.036;2023-05-13T04:58:29;5.18;;;2.50;;
72797;SDS011;61084;55.816;37.036;2023-05-13T05:00:55;9.20;;;2.75;;
72797;SDS011;61084;55.816;37.036;2023-05-13T05:03:22;8.65;;;2.67;;
72797;SDS011;61084;55.816;37.036;2023-05-13T05:08:17;7.18;;;2.65;;
72797;SDS011;61084;55.816;37.036;2023-05-13T05:10:45;5.57;;;2.65;;
72797;SDS011;61084;55.816;37.036;2023-05-13T05:13:12;3.20;;;2.40;;
72797;SDS011;61084;55.816;37.036;2023-05-13T05:15:39;2.95;;;2.30;;
72797;SDS011;61084;55.816;37.036;2023-05-13T05:18:07;8.25;;;2.30;;
72797;SDS011;61084;55.816;37.036;2023-05-13T05:20:36;7.40;;;2.20;;
72797;SDS011;61084;55.816;37.036;2023-05-13T05:23:04;5.75;;;2.20;;
72797;SDS011;61084;55.816;37.036;2023-05-13T05:25:31;6.40;;;2.53;;
72797;SDS011;61084;55.816;37.036;2023-05-13T05:27:57;6.05;;;2.15;;
72797;SDS011;61084;55.816;37.036;2023-05-13T05:30:23;4.25;;;2.50;;
72797;SDS011;61084;55.816;37.036;2023-05-13T05:32:58;3.55;;;2.08;;
72797;SDS011;61084;55.816;37.036;2023-05-13T05:35:24;8.65;;;2.38;;
72797;SDS011;61084;55.816;37.036;2023-05-13T05:37:50;5.80;;;2.03;;
72797;SDS011;61084;55.816;37.036;2023-05-13T05:42:45;6.75;;;2.40;;
72797;SDS011;61084;55.816;37.036;2023-05-13T05:45:11;4.32;;;2.00;;
72797;SDS011;61084;55.816;37.036;2023-05-13T05:47:37;5.47;;;2.10;;
72797;SDS011;61084;55.816;37.036;2023-05-13T05:50:03;5.63;;;2.40;;
72797;SDS011;61084;55.816;37.036;2023-05-13T05:52:30;7.15;;;2.30;;
72797;SDS011;61084;55.816;37.036;2023-05-13T05:57:22;4.25;;;2.40;;
72797;SDS011;61084;55.816;37.036;2023-05-13T05:59:48;4.20;;;2.03;;
72797;SDS011;61084;55.816;37.036;2023-05-13T06:02:15;7.82;;;2.03;;
72797;SDS011;61084;55.816;37.036;2023-05-13T06:04:41;4.88;;;2.15;;
72797;SDS011;61084;55.816;37.036;2023-05-13T06:07:07;6.45;;;1.92;;
72797;SDS011;61084;55.816;37.036;2023-05-13T06:09:33;7.43;;;2.55;;
72797;SDS011;61084;55.816;37.036;2023-05-13T06:12:00;4.45;;;1.92;;
72797;SDS011;61084;55.816;37.036;2023-05-13T06:14:26;9.50;;;2.05;;
72797;SDS011;61084;55.816;37.036;2023-05-13T06:16:52;3.53;;;1.88;;
72797;SDS011;61084;55.816;37.036;2023-05-13T06:22:30;7.57;;;2.00;;
72797;SDS011;61084;55.816;37.036;2023-05-13T06:27:22;7.53;;;2.17;;
72797;SDS011;61084;55.816;37.036;2023-05-13T06:29:48;3.30;;;1.92;;
72797;SDS011;61084;55.816;37.036;2023-05-13T06:32:14;5.30;;;2.05;;
72797;SDS011;61084;55.816;37.036;2023-05-13T06:34:41;5.97;;;2.17;;
72797;SDS011;61084;55.816;37.036;2023-05-13T06:37:11;5.05;;;1.90;;
72797;SDS011;61084;55.816;37.036;2023-05-13T06:39:39;4.25;;;2.00;;
72797;SDS011;61084;55.816;37.036;2023-05-13T06:42:05;4.05;;;2.08;;
72797;SDS011;61084;55.816;37.036;2023-05-13T06:44:37;4.82;;;2.15;;
72797;SDS011;61084;55.816;37.036;2023-05-13T06:47:05;9.10;;;1.75;;
72797;SDS011;61084;55.816;37.036;2023-05-13T06:49:32;7.68;;;1.70;;
72797;SDS011;61084;55.816;37.036;2023-05-13T06:51:58;4.43;;;2.05;;
72797;SDS011;61084;55.816;37.036;2023-05-13T06:54:25;4.22;;;1.85;;
72797;SDS011;61084;55.816;37.036;2023-05-13T06:56:53;13.98;;;1.90;;
72797;SDS011;61084;55.816;37.036;2023-05-13T06:59:19;8.05;;;2.40;;
72797;SDS011;61084;55.816;37.036;2023-05-13T07:01:47;5.45;;;1.80;;
72797;SDS011;61084;55.816;37.036;2023-05-13T07:04:13;5.30;;;1.80;;
72797;SDS011;61084;55.816;37.036;2023-05-13T07:09:05;5.05;;;2.08;;
72797;SDS011;61084;55.816;37.036;2023-05-13T07:11:35;3.08;;;1.80;;
72797;SDS011;61084;55.816;37.036;2023-05-13T07:14:01;3.40;;;1.77;;
72797;SDS011;61084;55.816;37.036;2023-05-13T07:16:27;3.28;;;1.85;;
72797;SDS011;61084;55.816;37.036;2023-05-13T07:18:54;5.05;;;1.90;;
72797;SDS011;61084;55.816;37.036;2023-05-13T07:21:20;3.65;;;2.20;;
72797;SDS011;61084;55.816;37.036;2023-05-13T07:23:46;4.70;;;2.10;;
72797;SDS011;61084;55.816;37.036;2023-05-13T07:26:12;6.55;;;2.22;;
72797;SDS011;61084;55.816;37.036;2023-05-13T07:28:38;6.57;;;2.30;;
72797;SDS011;61084;55.816;37.036;2023-05-13T07:31:06;10.88;;;2.10;;
72797;SDS011;61084;55.816;37.036;2023-05-13T07:33:32;7.97;;;2.13;;
72797;SDS011;61084;55.816;37.036;2023-05-13T07:35:57;5.82;;;2.28;;
72797;SDS011;61084;55.816;37.036;2023-05-13T07:38:23;5.63;;;2.50;;
72797;SDS011;61084;55.816;37.036;2023-05-13T07:40:49;5.03;;;2.10;;
72797;SDS011;61084;55.816;37.036;2023-05-13T07:43:15;7.50;;;2.60;;
72797;SDS011;61084;55.816;37.036;2023-05-13T07:45:49;9.43;;;2.45;;
72797;SDS011;61084;55.816;37.036;2023-05-13T07:48:16;12.95;;;2.40;;
72797;SDS011;61084;55.816;37.036;2023-05-13T07:50:43;13.30;;;2.17;;
72797;SDS011;61084;55.816;37.036;2023-05-13T07:53:12;4.47;;;2.40;;
72797;SDS011;61084;55.816;37.036;2023-05-13T07:55:38;4.75;;;2.15;;
72797;SDS011;61084;55.816;37.036;2023-05-13T07:58:04;18.73;;;2.10;;
72797;SDS011;61084;55.816;37.036;2023-05-13T08:00:30;5.75;;;1.88;;
72797;SDS011;61084;55.816;37.036;2023-05-13T08:02:56;6.55;;;2.05;;
72797;SDS011;61084;55.816;37.036;2023-05-13T08:05:22;7.30;;;2.08;;
72797;SDS011;61084;55.816;37.036;2023-05-13T08:07:48;6.30;;;2.20;;
72797;SDS011;61084;55.816;37.036;2023-05-13T08:10:14;7.40;;;2.28;;
72797;SDS011;61084;55.816;37.036;2023-05-13T08:15:06;9.60;;;2.03;;
72797;SDS011;61084;55.816;37.036;2023-05-13T08:17:34;7.22;;;1.70;;
72797;SDS011;61084;55.816;37.036;2023-05-13T08:20:00;6.93;;;1.70;;
72797;SDS011;61084;55.816;37.036;2023-05-13T08:22:27;5.32;;;1.83;;
72797;SDS011;61084;55.816;37.036;2023-05-13T08:24:53;7.18;;;1.83;;
72797;SDS011;61084;55.816;37.036;2023-05-13T08:27:19;5.82;;;1.95;;
72797;SDS011;61084;55.816;37.036;2023-05-13T08:29:45;6.38;;;1.70;;
72797;SDS011;61084;55.816;37.036;2023-05-13T08:32:11;4.18;;;1.63;;
72797;SDS011;61084;55.816;37.036;2023-05-13T08:34:37;5.85;;;1.60;;
72797;SDS011;61084;55.816;37.036;2023-05-13T08:37:04;4.65;;;1.50;;
72797;SDS011;61084;55.816;37.036;2023-05-13T08:39:30;3.88;;;1.80;;
72797;SDS011;61084;55.816;37.036;2023-05-13T08:41:57;4.45;;;1.80;;
72797;SDS011;61084;55.816;37.036;2023-05-13T08:44:24;7.53;;;2.15;;
72797;SDS011;61084;55.816;37.036;2023-05-13T08:49:52;5.90;;;1.77;;
72797;SDS011;61084;55.816;37.036;2023-05-13T08:52:18;2.90;;;1.67;;
72797;SDS011;61084;55.816;37.036;2023-05-13T08:54:47;5.95;;;1.83;;
72797;SDS011;61084;55.816;37.036;2023-05-13T08:57:14;8.25;;;1.60;;
72797;SDS011;61084;55.816;37.036;2023-05-13T08:59:39;4.43;;;1.65;;
72797;SDS011;61084;55.816;37.036;2023-05-13T09:02:05;11.13;;;2.05;;
72797;SDS011;61084;55.816;37.036;2023-05-13T09:04:33;6.28;;;1.65;;
72797;SDS011;61084;55.816;37.036;2023-05-13T09:07:03;4.78;;;1.95;;
72797;SDS011;61084;55.816;37.036;2023-05-13T09:09:30;7.25;;;1.92;;
72797;SDS011;61084;55.816;37.036;2023-05-13T09:11:56;4.22;;;1.85;;
72797;SDS011;61084;55.816;37.036;2023-05-13T09:14:22;4.00;;;1.90;;
72797;SDS011;61084;55.816;37.036;2023-05-13T09:16:55;1.83;;;1.40;;
72797;SDS011;61084;55.816;37.036;2023-05-13T09:19:24;5.05;;;1.92;;
72797;SDS011;61084;55.816;37.036;2023-05-13T09:21:51;3.58;;;1.48;;
72797;SDS011;61084;55.816;37.036;2023-05-13T09:24:18;2.65;;;1.88;;
72797;SDS011;61084;55.816;37.036;2023-05-13T09:26:47;5.55;;;1.85;;
72797;SDS011;61084;55.816;37.036;2023-05-13T09:29:18;2.60;;;1.60;;
72797;SDS011;61084;55.816;37.036;2023-05-13T09:31:54;4.15;;;1.42;;
72797;SDS011;61084;55.816;37.036;2023-05-13T09:34:25;8.95;;;1.85;;
72797;SDS011;61084;55.816;37.036;2023-05-13T09:39:30;7.50;;;2.05;;
72797;SDS011;61084;55.816;37.036;2023-05-13T09:41:57;6.88;;;1.70;;
72797;SDS011;61084;55.816;37.036;2023-05-13T09:44:23;4.03;;;1.70;;
72797;SDS011;61084;55.816;37.036;2023-05-13T09:46:49;8.40;;;1.88;;
72797;SDS011;61084;55.816;37.036;2023-05-13T09:49:17;4.57;;;1.40;;
72797;SDS011;61084;55.816;37.036;2023-05-13T09:51:43;6.55;;;1.75;;
72797;SDS011;61084;55.816;37.036;2023-05-13T09:54:11;4.65;;;1.65;;
72797;SDS011;61084;55.816;37.036;2023-05-13T09:56:38;4.00;;;1.58;;
72797;SDS011;61084;55.816;37.036;2023-05-13T09:59:03;9.88;;;2.10;;
72797;SDS011;61084;55.816;37.036;2023-05-13T10:01:29;5.00;;;1.65;;
72797;SDS011;61084;55.816;37.036;2023-05-13T10:03:56;7.00;;;1.90;;
72797;SDS011;61084;55.816;37.036;2023-05-13T10:06:25;3.88;;;1.60;;
72797;SDS011;61084;55.816;37.036;2023-05-13T10:08:53;4.97;;;1.88;;
72797;SDS011;61084;55.816;37.036;2023-05-13T10:11:22;8.38;;;2.08;;
72797;SDS011;61084;55.816;37.036;2023-05-13T10:13:51;8.93;;;2.00;;
72797;SDS011;61084;55.816;37.036;2023-05-13T10:16:23;4.82;;;2.20;;
72797;SDS011;61084;55.816;37.036;2023-05-13T10:18:50;4.53;;;1.77;;
72797;SDS011;61084;55.816;37.036;2023-05-13T10:21:17;6.43;;;1.85;;
72797;SDS011;61084;55.816;37.036;2023-05-13T10:23:44;3.60;;;2.15;;
72797;SDS011;61084;55.816;37.036;2023-05-13T10:26:11;6.13;;;1.90;;
72797;SDS011;61084;55.816;37.036;2023-05-13T10:28:38;4.93;;;2.05;;
72797;SDS011;61084;55.816;37.036;2023-05-13T10:33:30;5.07;;;1.88;;
72797;SDS011;61084;55.816;37.036;2023-05-13T10:36:00;4.25;;;2.28;;
72797;SDS011;61084;55.816;37.036;2023-05-13T10:44:04;5.75;;;2.08;;
72797;SDS011;61084;55.816;37.036;2023-05-13T10:46:30;6.55;;;1.92;;
72797;SDS011;61084;55.816;37.036;2023-05-13T10:48:58;3.65;;;2.00;;
72797;SDS011;61084;55.816;37.036;2023-05-13T10:51:25;4.55;;;1.98;;
72797;SDS011;61084;55.816;37.036;2023-05-13T10:53:52;8.75;;;2.25;;
72797;SDS011;61084;55.816;37.036;2023-05-13T10:56:20;7.18;;;2.28;;
72797;SDS011;61084;55.816;37.036;2023-05-13T10:59:01;3.90;;;2.30;;
72797;SDS011;61084;55.816;37.036;2023-05-13T11:01:29;3.67;;;1.65;;
72797;SDS011;61084;55.816;37.036;2023-05-13T11:03:59;5.35;;;2.05;;
72797;SDS011;61084;55.816;37.036;2023-05-13T11:06:36;8.75;;;3.35;;
72797;SDS011;61084;55.816;37.036;2023-05-13T11:09:07;3.97;;;1.52;;
72797;SDS011;61084;55.816;37.036;2023-05-13T11:11:37;3.97;;;1.90;;
72797;SDS011;61084;55.816;37.036;2023-05-13T11:14:07;2.63;;;1.52;;
72797;SDS011;61084;55.816;37.036;2023-05-13T11:16:53;5.28;;;2.00;;
72797;SDS011;61084;55.816;37.036;2023-05-13T11:19:36;4.03;;;1.63;;
72797;SDS011;61084;55.816;37.036;2023-05-13T11:22:20;3.60;;;1.70;;
72797;SDS011;61084;55.816;37.036;2023-05-13T11:25:05;3.03;;;1.50;;
72797;SDS011;61084;55.816;37.036;2023-05-13T11:27:38;3.55;;;1.55;;
72797;SDS011;61084;55.816;37.036;2023-05-13T11:30:22;9.18;;;3.05;;
72797;SDS011;61084;55.816;37.036;2023-05-13T11:35:22;7.07;;;1.85;;
72797;SDS011;61084;55.816;37.036;2023-05-13T11:37:47;5.25;;;1.83;;
72797;SDS011;61084;55.816;37.036;2023-05-13T11:40:27;9.05;;;2.35;;
72797;SDS011;61084;55.816;37.036;2023-05-13T11:42:54;5.88;;;1.67;;
72797;SDS011;61084;55.816;37.036;2023-05-13T11:45:22;3.55;;;1.52;;
72797;SDS011;61084;55.816;37.036;2023-05-13T11:47:49;3.78;;;2.03;;
72797;SDS011;61084;55.816;37.036;2023-05-13T11:50:22;6.75;;;2.15;;
72797;SDS011;61084;55.816;37.036;2023-05-13T11:52:51;3.47;;;1.60;;
72797;SDS011;61084;55.816;37.036;2023-05-13T11:55:28;7.32;;;2.03;;
72797;SDS011;61084;55.816;37.036;2023-05-13T11:57:59;5.95;;;1.83;;
72797;SDS011;61084;55.816;37.036;2023-05-13T12:00:29;4.32;;;1.67;;
72797;SDS011;61084;55.816;37.036;2023-05-13T12:02:56;5.10;;;1.85;;
72797;SDS011;61084;55.816;37.036;2023-05-13T12:05:23;3.55;;;1.95;;
72797;SDS011;61084;55.816;37.036;2023-05-13T12:07:50;5.40;;;1.88;;
72797;SDS011;61084;55.816;37.036;2023-05-13T12:10:16;5.95;;;1.90;;
72797;SDS011;61084;55.816;37.036;2023-05-13T12:15:13;3.72;;;2.15;;
72797;SDS011;61084;55.816;37.036;2023-05-13T12:17:42;3.63;;;1.73;;
72797;SDS011;61084;55.816;37.036;2023-05-13T12:20:12;8.55;;;2.10;;
72797;SDS011;61084;55.816;37.036;2023-05-13T12:27:52;5.18;;;2.17;;
72797;SDS011;61084;55.816;37.036;2023-05-13T12:32:43;5.15;;;1.80;;
72797;SDS011;61084;55.816;37.036;2023-05-13T12:37:39;6.15;;;1.85;;
72797;SDS011;61084;55.816;37.036;2023-05-13T12:40:11;5.57;;;2.20;;
72797;SDS011;61084;55.816;37.036;2023-05-13T12:42:43;5.88;;;2.50;;
72797;SDS011;61084;55.816;37.036;2023-05-13T12:45:10;9.63;;;2.28;;
72797;SDS011;61084;55.816;37.036;2023-05-13T12:50:16;4.35;;;1.73;;
72797;SDS011;61084;55.816;37.036;2023-05-13T12:52:43;6.18;;;2.30;;
72797;SDS011;61084;55.816;37.036;2023-05-13T12:57:38;4.72;;;2.00;;
72797;SDS011;61084;55.816;37.036;2023-05-13T13:00:06;3.95;;;2.00;;
72797;SDS011;61084;55.816;37.036;2023-05-13T13:02:38;6.68;;;1.83;;
72797;SDS011;61084;55.816;37.036;2023-05-13T13:05:05;3.45;;;1.90;;
72797;SDS011;61084;55.816;37.036;2023-05-13T13:07:31;8.63;;;1.83;;
72797;SDS011;61084;55.816;37.036;2023-05-13T13:12:23;4.28;;;1.85;;
72797;SDS011;61084;55.816;37.036;2023-05-13T13:14:49;5.07;;;1.92;;
72797;SDS011;61084;55.816;37.036;2023-05-13T13:19:41;4.97;;;2.45;;
72797;SDS011;61084;55.816;37.036;2023-05-13T13:22:06;13.90;;;4.28;;
72797;SDS011;61084;55.816;37.036;2023-05-13T13:24:32;6.03;;;2.20;;
72797;SDS011;61084;55.816;37.036;2023-05-13T13:29:24;12.85;;;4.80;;
72797;SDS011;61084;55.816;37.036;2023-05-13T13:31:50;2.95;;;1.90;;
72797;SDS011;61084;55.816;37.036;2023-05-13T13:34:16;3.47;;;1.88;;
72797;SDS011;61084;55.816;37.036;2023-05-13T13:36:42;4.40;;;1.40;;
72797;SDS011;61084;55.816;37.036;2023-05-13T13:39:08;7.47;;;1.50;;
72797;SDS011;61084;55.816;37.036;2023-05-13T13:41:34;5.32;;;1.55;;
72797;SDS011;61084;55.816;37.036;2023-05-13T13:44:00;2.72;;;1.73;;
72797;SDS011;61084;55.816;37.036;2023-05-13T13:46:26;7.65;;;2.15;;
72797;SDS011;61084;55.816;37.036;2023-05-13T13:48:52;5.93;;;1.83;;
72797;SDS011;61084;55.816;37.036;2023-05-13T13:51:18;3.63;;;1.77;;
72797;SDS011;61084;55.816;37.036;2023-05-13T13:53:44;3.70;;;1.55;;
72797;SDS011;61084;55.816;37.036;2023-05-13T13:56:09;4.63;;;1.63;;
72797;SDS011;61084;55.816;37.036;2023-05-13T13:58:35;4.20;;;1.80;;
72797;SDS011;61084;55.816;37.036;2023-05-13T14:03:27;5.15;;;1.55;;
72797;SDS011;61084;55.816;37.036;2023-05-13T14:05:52;4.32;;;1.67;;
72797;SDS011;61084;55.816;37.036;2023-05-13T14:08:19;2.53;;;1.58;;
72797;SDS011;61084;55.816;37.036;2023-05-13T14:10:45;4.75;;;1.60;;
72797;SDS011;61084;55.816;37.036;2023-05-13T14:13:11;9.00;;;2.45;;
72797;SDS011;61084;55.816;37.036;2023-05-13T14:15:37;6.85;;;1.50;;
72797;SDS011;61084;55.816;37.036;2023-05-13T14:18:04;5.05;;;1.73;;
72797;SDS011;61084;55.816;37.036;2023-05-13T14:20:33;2.78;;;1.27;;
72797;SDS011;61084;55.816;37.036;2023-05-13T14:23:00;2.13;;;1.27;;
72797;SDS011;61084;55.816;37.036;2023-05-13T14:25:27;1.83;;;1.45;;
72797;SDS011;61084;55.816;37.036;2023-05-13T14:27:53;1.55;;;1.25;;
72797;SDS011;61084;55.816;37.036;2023-05-13T14:30:19;2.47;;;1.27;;
72797;SDS011;61084;55.816;37.036;2023-05-13T14:32:45;4.93;;;1.85;;
72797;SDS011;61084;55.816;37.036;2023-05-13T14:35:11;3.67;;;1.50;;
72797;SDS011;61084;55.816;37.036;2023-05-13T14:37:39;4.75;;;1.80;;
72797;SDS011;61084;55.816;37.036;2023-05-13T14:40:05;4.15;;;1.33;;
72797;SDS011;61084;55.816;37.036;2023-05-13T14:42:32;3.22;;;1.60;;
72797;SDS011;61084;55.816;37.036;2023-05-13T14:44:57;4.82;;;1.63;;
72797;SDS011;61084;55.816;37.036;2023-05-13T14:47:23;6.80;;;1.70;;
72797;SDS011;61084;55.816;37.036;2023-05-13T14:49:49;2.83;;;1.60;;
72797;SDS011;61084;55.816;37.036;2023-05-13T14:52:15;6.78;;;1.88;;
72797;SDS011;61084;55.816;37.036;2023-05-13T14:54:41;5.38;;;1.50;;
72797;SDS011;61084;55.816;37.036;2023-05-13T14:59:32;1.88;;;1.38;;
72797;SDS011;61084;55.816;37.036;2023-05-13T15:02:02;6.85;;;1.60;;
72797;SDS011;61084;55.816;37.036;2023-05-13T15:04:28;3.72;;;1.40;;
72797;SDS011;61084;55.816;37.036;2023-05-13T15:06:54;2.85;;;1.80;;
72797;SDS011;61084;55.816;37.036;2023-05-13T15:09:20;4.47;;;1.70;;
72797;SDS011;61084;55.816;37.036;2023-05-13T15:11:46;3.75;;;2.00;;
72797;SDS011;61084;55.816;37.036;2023-05-13T15:14:12;5.45;;;2.22;;
72797;SDS011;61084;55.816;37.036;2023-05-13T15:16:42;4.70;;;2.20;;
72797;SDS011;61084;55.816;37.036;2023-05-13T15:19:08;8.60;;;2.78;;
72797;SDS011;61084;55.816;37.036;2023-05-13T15:21:34;5.93;;;2.08;;
72797;SDS011;61084;55.816;37.036;2023-05-13T15:24:00;4.22;;;1.77;;
72797;SDS011;61084;55.816;37.036;2023-05-13T15:26:25;3.20;;;1.58;;
72797;SDS011;61084;55.816;37.036;2023-05-13T15:31:17;6.03;;;1.60;;
72797;SDS011;61084;55.816;37.036;2023-05-13T15:33:43;4.00;;;1.58;;
72797;SDS011;61084;55.816;37.036;2023-05-13T15:38:35;3.67;;;1.77;;
72797;SDS011;61084;55.816;37.036;2023-05-13T15:41:02;3.85;;;1.75;;
72797;SDS011;61084;55.816;37.036;2023-05-13T15:45:55;6.30;;;2.15;;
72797;SDS011;61084;55.816;37.036;2023-05-13T15:50:46;7.40;;;2.47;;
72797;SDS011;61084;55.816;37.036;2023-05-13T15:53:12;4.03;;;1.90;;
72797;SDS011;61084;55.816;37.036;2023-05-13T15:55:38;5.35;;;2.10;;
72797;SDS011;61084;55.816;37.036;2023-05-13T15:58:04;5.40;;;2.00;;
72797;SDS011;61084;55.816;37.036;2023-05-13T16:00:30;7.78;;;2.13;;
72797;SDS011;61084;55.816;37.036;2023-05-13T16:02:56;2.83;;;1.52;;
72797;SDS011;61084;55.816;37.036;2023-05-13T16:05:21;10.07;;;1.98;;